Record high temperature 107.1°F Record low temperature 10.6°F Record high gust 49.5 mph Record high average 28.3 mph Record daily rain 11.65 in. Record low windchill 2.7°F Record high barometer 30.818 in. Record low barometer 29.078 in.
Daily high pressure 30.218 in. Daily low pressure 30.207 in. Daily low windchill 50.2°F Daily high heat index 58.2°F Daily high gust speed 3.5 mph S Daily high average speed 2.2 mph SSE
On the Greenway Weather data
LAST READING AT TIME: 5:09 AM DATE: June 22 2017, time of next update: 5:10 am
Current WeatherDawn/Dry/Clear skies Current Temperature 50.2°F (10.1°C), Apparent temp 50.0°F, Apparent temp solar 50.0 °F
Maximum Temperature (since midnight)58.2°F at: 12:00 AM Minimum Temperature (since midnight)50.2°F at: 5:08 AM
Average windspeed (ten minute)0.1 mph Wind Direction (ten minute)SSE (158°)
Windchill Temperature 50.2°F Maximum Gust (last hour)1.0 mph at: 4:13AM
Maximum Gust (since midnight)3.5 mph at: 12:07 AM Maximum 1 minute average (since midnight)2.2 mph at: 12:08 AM
Rainfall (last hour)0.00 in. (0.0 mm) Rainfall (since midnight)0.00 in. (0.0 mm) ---
Rainfall This month 1.19 in. (30.2 mm) Rainfall To date this year 55.53 in. (1410.5 mm)
Maximum rain per minute (last hour)0.00 in/min Maximum rain per hour (last 6 hours)0.00 in/hour
Yesterdays rainfall 0.00 in DewPoint 47.1°F (Wet Bulb :48.7°F )
Humidity 89 %, Humidex 51.2°F Barometer corrected to msl30.211 in. (1023.1 hPa)
Pressure change -0.00 in. (last hour) Trend (last hour)STEADY
Pressure change (last 12 hours)+0.03 in Pressure change (last 6 hours)+0.00 in
Current Indoor Temp. 80.8°F
Current Indoor Hum. 32%
Current Solar 0 W/Mē
Maximum solar (since midnight) 0 W/Mē Minimum solar (since midnight)0 W/Mē
Current 00:00 hours of sunshine today, current sky: Dawn/Dry/Clear skies
Sunshine hours for the year: 00:00 hrs Sunshine hours for the month: 00:00 hrs
Current evapotranspiration 0.02 inches per day. Yesterday's reading 0.06

This page is updated from recent data collected by a DAVIS VANTAGE PRO weather station Use the Reload or Refresh facility on your browser to retrieve the latest data.


Click here for the last 24 hour graph
Click here for the last 48 hour graph
Click here for the last 72 hour graph
Click here for the month to date graph


Weather report/warning/Metars

Expires:201706221745;;632625
FPUS56 KPQR 221030
ZFPPQR

Zone Forecasts for Northwest Oregon and Southwest Washington
National Weather Service Portland Oregon
330 AM PDT Thu Jun 22 2017

Spot Temperatures are for Today, Tonight, Friday, Friday Night, 
and Saturday.


ORZ006-WAZ039-221745-
Greater Portland Metro Area-Greater Vancouver Area-
Including the cities of Hillsboro, Portland, Wilsonville, 
Oregon City, Gresham, Troutdale, Vancouver, Battle Ground, 
Ridgefield, Washougal, Yacolt, and Amboy
330 AM PDT Thu Jun 22 2017

.TODAY...Mostly sunny. Highs around 80. North wind 5 to 10 mph
increasing to 10 to 15 mph with gusts to 20 mph in the afternoon. 
.TONIGHT...Clear. Lows 50 to 55. North wind 10 to 15 mph with gusts
to 25 mph decreasing to 5 to 10 mph after midnight. 
.FRIDAY...Sunny. Highs near 90. Northeast wind 5 to 15 mph. 
.FRIDAY NIGHT...Clear. Lows 55 to 60. North wind 10 to 15 mph
decreasing to 5 to 10 mph after midnight. East wind 10 to 15 mph with
gusts to 25 mph near the Columbia Gorge.
.SATURDAY...Sunny, hot. Highs in the mid to upper 90s. Northeast 
wind 5 to 15 mph, except East 10 to 15 mph with gusts to 25 mph near
the Columbia Gorge.
.SATURDAY NIGHT...Clear. Lows 60 to 65. 
.SUNDAY...Mostly sunny. Highs around 95. 
.SUNDAY NIGHT...Mostly clear. Lows around 60. 
.MONDAY...Mostly sunny. Highs 80 to 85. 
.MONDAY NIGHT...Clear in the evening, then mostly cloudy. Lows 50 to
55. 
.TUESDAY...Mostly cloudy in the morning, then partly cloudy. Highs
70 to 75. 
.TUESDAY NIGHT...Partly cloudy in the evening, then mostly cloudy.
Lows around 55. 
.WEDNESDAY...Mostly cloudy in the morning, then mostly sunny. Highs
around 75. 

&&
                  TEMPERATURE         
Portland          81  55  90  60  97
Hillsboro         81  50  91  55  97

$$
=


PORTLAND-HILLSBORO AIRPORT, OR, United States (KHIO) 45-33N 122-57W 68M
Jun 22, 2017 - 07:53 AM EDT / 2017.06.22 1153 UTC
Wind: from the WNW (300 degrees) at 7 MPH (6 KT):0
Visibility: 10 mile(s):0
Sky conditions: clear
Temperature: 50.0 F (10.0 C)
Dew Point: 46.0 F (7.8 C)
Relative Humidity: 86%
Pressure (altimeter): 30.23 in. Hg (1023 hPa)
Pressure tendency: 0.00 inches (0.1 hPa) higher than three hours ago
ob: KHIO 221153Z AUTO 30006KT 10SM CLR 10/08 A3023 RMK AO2 SLP233 T01000078 10139 20100 50001 
cycle: 12
PORTLAND INTERNATIONAL  AIRPORT, OR, United States (KPDX) 45-35N 122-36W 7M
Jun 22, 2017 - 07:53 AM EDT / 2017.06.22 1153 UTC
Wind: from the N (350 degrees) at 3 MPH (3 KT):0
Visibility: 10 mile(s):0
Sky conditions: clear
Temperature: 54.0 F (12.2 C)
Dew Point: 46.9 F (8.3 C)
Relative Humidity: 77%
Pressure (altimeter): 30.23 in. Hg (1023 hPa)
Pressure tendency: 0.00 inches (0.0 hPa) lower than three hours ago
ob: KPDX 221153Z 35003KT 10SM CLR 12/08 A3023 RMK AO2 SLP235 7//// T01220083 10156 20122 58000
cycle: 12
PORTLAND-TROUTDALE AIRPORT, OR, United States (KTTD) 45-33N 122-25W 14M
Jun 22, 2017 - 07:53 AM EDT / 2017.06.22 1153 UTC
Wind: Calm:0
Visibility: 10 mile(s):0
Sky conditions: clear
Temperature: 52.0 F (11.1 C)
Dew Point: 48.0 F (8.9 C)
Relative Humidity: 86%
Pressure (altimeter): 30.22 in. Hg (1023 hPa)
Pressure tendency: 0.00 inches (0.1 hPa) higher than three hours ago
ob: KTTD 221153Z AUTO 00000KT 10SM CLR 11/09 A3022 RMK AO2 SLP234 T01110089 10167 20106 50001
cycle: 12
MCMINNVILLE MUNICIPAL AIRPORT , OR, United States (KMMV) 45-12N 123-08W 48M
Jun 22, 2017 - 07:53 AM EDT / 2017.06.22 1153 UTC
Wind: from the W (280 degrees) at 3 MPH (3 KT):0
Visibility: 10 mile(s):0
Sky conditions: clear
Temperature: 48.9 F (9.4 C)
Dew Point: 45.0 F (7.2 C)
Relative Humidity: 86%
Pressure (altimeter): 30.23 in. Hg (1023 hPa)
Pressure tendency: 0.00 inches (0.1 hPa) higher than three hours ago
ob: KMMV 221153Z AUTO 28003KT 10SM CLR 09/07 A3023 RMK AO2 SLP236 T00940072 10150 20083 50001
cycle: 12
SALEM MCNARY FIELD, OR, United States (KSLE) 44-54N 123-00W 59M
Jun 22, 2017 - 07:56 AM EDT / 2017.06.22 1156 UTC
Wind: from the N (360 degrees) at 5 MPH (4 KT):0
Visibility: 10 mile(s):0
Sky conditions: clear
Temperature: 53.1 F (11.7 C)
Dew Point: 46.0 F (7.8 C)
Relative Humidity: 76%
Pressure (altimeter): 30.21 in. Hg (1023 hPa)
Pressure tendency: 0.01 inches (0.2 hPa) lower than three hours ago
ob: KSLE 221156Z AUTO 36004KT 10SM CLR 12/08 A3021 RMK AO2 SLP228 T01170078 10172 20106 58002
cycle: 12
REDMOND ROBERTS FIELD, OR, United States (KRDM) 44-15N 121-08W
Jun 22, 2017 - 07:56 AM EDT / 2017.06.22 1156 UTC
Wind: from the S (170 degrees) at 3 MPH (3 KT):0
Visibility: 10 mile(s):0
Sky conditions: clear
Temperature: 37.0 F (2.8 C)
Dew Point: 25.0 F (-3.9 C)
Relative Humidity: 61%
Pressure (altimeter): 30.22 in. Hg (1023 hPa)
Pressure tendency: 0.02 inches (0.7 hPa) higher than three hours ago
ob: KRDM 221156Z 17003KT 10SM CLR 03/M04 A3022 RMK AO2 SLP223 T00281039 10150 20022 53007
cycle: 12

Date: 6/22/2017
Sunrise at:
05:22 am

Sunset at:
09:03 pm

Moonrise at:
04:25 am 06/22/17

Moonset at:
06:09 pm 06/21/17

First Quarter  June 1 2017
Full moon  June 9 2017
Last QuarterJune 17 2017
New moon June 24 2017
Moon age: 27 days,9 hours,56 minutes,5%
Hours of possible daylight today was 15:41:00



Use the RELOAD facility on your browser to retrieve the latest data.

Click here for current Fire weather info
Click here for the daily CLIMATOLOGICAL SUMMARY
Click here for a daily update of the averages/extremes to date for the month




Created by "Weather Display" software version 10.37R at this start time/date 5:42:06 PM 2/5/2017




On The Greenway Weather Web Site

 
 
HELP US OUT
Help us keep this weather station on the web. for the Tigard / Portland internet users to use. If you would like to help, click the donate button below
 
This site is purely funded by donations and by myself (Ray Cooper)
Anything you can do will help keep this station on the net
Average cost per year is $665 to publish and host this site excluding the cost of the weather equipment
Buyastrostuff.com is kind enough to host our DNS and email at no cost.
THANKS GUYS & Gals for helping
Have a Question,or just want to talk. Contact me at:
Ray Cooper @ Buyastrostuff.com
 

Weather Underground PWS KORTIGAR12 Weather Underground PWS KORTIGAR12